Time;durP1;ratioP1;P1;durP2;ratioP2;P2;SDS_P1;SDS_P2;PMS_P1;PMS_P2;Temp;Humidity;BMP_temperature;BMP_pressure;BME280_temperature;BME280_humidity;BME280_pressure;Samples;Min_cycle;Max_cycle;Signal;HPM_P1;HPM_P2
2023/10/22 00:00:31;;;;;;;1.73;1.50;;;10.40;99.90;;;;;;5106629;28;20707;-72
2023/10/22 00:02:58;;;;;;;2.63;1.87;;;10.20;99.90;;;;;;5107119;28;20632;-72
2023/10/22 00:05:25;;;;;;;1.70;1.60;;;10.20;99.90;;;;;;5098694;28;20655;-71
2023/10/22 00:07:52;;;;;;;2.43;2.27;;;10.20;99.90;;;;;;5106105;28;20622;-72
2023/10/22 00:10:18;;;;;;;2.10;1.90;;;10.00;99.90;;;;;;5107212;28;20622;-71
2023/10/22 00:12:45;;;;;;;1.40;1.30;;;9.90;99.90;;;;;;5107254;28;20632;-72
2023/10/22 00:15:14;;;;;;;1.93;1.70;;;9.90;99.90;;;;;;5106905;28;20620;-72
2023/10/22 00:17:41;;;;;;;1.60;1.50;;;9.90;99.90;;;;;;5106445;28;21456;-72
2023/10/22 00:20:09;;;;;;;1.53;1.43;;;10.00;99.90;;;;;;5106538;28;20642;-72
2023/10/22 00:22:36;;;;;;;2.30;1.93;;;10.00;99.90;;;;;;5107224;28;20630;-72
2023/10/22 00:25:03;;;;;;;2.17;2.00;;;9.90;99.90;;;;;;5106908;28;20628;-72
2023/10/22 00:27:29;;;;;;;2.00;1.90;;;9.90;99.90;;;;;;5106455;28;20628;-72
2023/10/22 00:29:56;;;;;;;2.00;1.87;;;9.80;99.90;;;;;;5106872;28;21310;-72
2023/10/22 00:32:25;;;;;;;2.40;1.97;;;9.70;99.90;;;;;;5106273;28;20615;-73
2023/10/22 00:34:51;;;;;;;2.40;2.20;;;9.70;99.90;;;;;;5105873;28;20620;-72
2023/10/22 00:37:18;;;;;;;3.57;1.60;;;9.70;99.90;;;;;;5106271;28;20668;-72
2023/10/22 00:39:45;;;;;;;1.93;1.67;;;9.70;99.90;;;;;;5106619;28;21214;-72
2023/10/22 00:42:12;;;;;;;2.23;2.00;;;9.60;99.90;;;;;;5106693;28;20614;-72
2023/10/22 00:44:39;;;;;;;2.27;1.80;;;9.60;99.90;;;;;;5106851;28;20979;-72
2023/10/22 00:47:07;;;;;;;3.13;1.77;;;9.70;99.90;;;;;;5097999;28;20635;-72
2023/10/22 00:49:35;;;;;;;3.43;1.90;;;9.70;99.90;;;;;;5106109;28;20628;-72
2023/10/22 00:52:03;;;;;;;3.00;2.07;;;9.70;99.90;;;;;;5106550;28;20628;-72
2023/10/22 00:54:30;;;;;;;2.17;2.00;;;9.70;99.90;;;;;;5112973;28;20628;-72
2023/10/22 00:56:59;;;;;;;1.83;1.73;;;9.60;99.90;;;;;;5105949;28;20651;-73
2023/10/22 00:59:26;;;;;;;4.03;1.70;;;9.70;99.90;;;;;;5106445;28;20639;-72
2023/10/22 01:01:52;;;;;;;1.60;1.50;;;9.70;99.90;;;;;;5104788;28;21202;-72
2023/10/22 01:04:19;;;;;;;2.77;2.30;;;9.70;99.90;;;;;;5105860;28;20624;-72
2023/10/22 01:06:47;;;;;;;1.37;1.27;;;9.60;99.90;;;;;;5105581;28;20626;-72
2023/10/22 01:09:16;;;;;;;1.87;1.67;;;9.60;99.90;;;;;;5106001;28;20640;-72
2023/10/22 01:11:58;;;;;;;2.07;1.90;;;9.50;99.90;;;;;;5106474;28;20620;-72
2023/10/22 01:14:27;;;;;;;1.77;1.67;;;9.50;99.90;;;;;;5105197;28;20636;-72
2023/10/22 01:16:56;;;;;;;1.90;1.67;;;9.40;99.90;;;;;;5111310;28;20637;-73
2023/10/22 01:19:23;;;;;;;1.83;1.60;;;9.50;99.90;;;;;;5106125;28;20640;-72
2023/10/22 01:21:52;;;;;;;2.40;1.40;;;9.50;99.90;;;;;;5113624;27;20632;-72
2023/10/22 01:24:23;;;;;;;2.57;2.13;;;9.50;99.90;;;;;;5109958;28;20626;-72
2023/10/22 01:26:51;;;;;;;1.23;1.23;;;9.50;99.90;;;;;;5108452;28;21074;-72
2023/10/22 01:29:21;;;;;;;2.37;2.17;;;9.50;99.90;;;;;;5110084;28;20620;-72
2023/10/22 01:31:49;;;;;;;1.63;1.40;;;9.50;99.90;;;;;;5109827;28;20635;-72
2023/10/22 01:34:17;;;;;;;1.90;1.80;;;9.60;99.90;;;;;;5104816;28;20624;-72
2023/10/22 01:36:45;;;;;;;1.60;1.50;;;9.60;99.90;;;;;;5109308;28;20624;-72
2023/10/22 01:39:14;;;;;;;1.70;1.60;;;9.70;99.90;;;;;;5109377;28;20695;-72
2023/10/22 01:41:43;;;;;;;1.63;1.30;;;9.60;99.90;;;;;;5109353;28;21027;-72
2023/10/22 01:44:13;;;;;;;1.97;1.07;;;9.60;99.90;;;;;;5109856;28;20711;-72
2023/10/22 01:46:41;;;;;;;1.60;1.50;;;9.80;99.90;;;;;;5109187;28;20644;-72
2023/10/22 01:49:09;;;;;;;1.33;1.23;;;9.60;99.90;;;;;;5101295;28;20685;-72
2023/10/22 01:51:37;;;;;;;1.73;1.40;;;9.60;99.90;;;;;;5109473;28;20720;-72
2023/10/22 01:54:06;;;;;;;1.10;1.03;;;9.50;99.90;;;;;;5108679;28;20627;-72
2023/10/22 01:56:35;;;;;;;2.87;1.30;;;9.40;99.90;;;;;;5108906;28;21103;-72
2023/10/22 01:59:05;;;;;;;1.40;1.30;;;9.40;99.90;;;;;;5109335;28;20671;-71
2023/10/22 02:01:34;;;;;;;1.47;1.37;;;9.40;99.90;;;;;;5109622;28;21207;-72
2023/10/22 02:04:01;;;;;;;1.67;1.57;;;9.30;99.90;;;;;;5109692;28;20624;-71
2023/10/22 02:06:29;;;;;;;2.23;1.40;;;9.30;99.90;;;;;;5108192;28;20619;-72
2023/10/22 02:08:57;;;;;;;1.77;1.63;;;9.30;99.90;;;;;;5109248;28;20732;-72
2023/10/22 02:11:24;;;;;;;1.50;1.40;;;9.20;99.90;;;;;;5109169;28;20627;-72
2023/10/22 02:13:51;;;;;;;1.40;1.30;;;9.20;99.90;;;;;;5109023;27;20636;-72
2023/10/22 02:16:19;;;;;;;1.53;1.40;;;9.30;99.90;;;;;;5108247;27;20639;-72
2023/10/22 02:18:47;;;;;;;1.90;1.80;;;9.40;99.90;;;;;;5101411;28;20692;-72
2023/10/22 02:21:19;;;;;;;3.13;1.50;;;9.50;99.90;;;;;;5108685;28;20626;-71
2023/10/22 02:23:46;;;;;;;4.00;1.37;;;9.60;99.90;;;;;;5108238;28;20620;-72
2023/10/22 02:26:16;;;;;;;3.60;1.17;;;9.40;99.90;;;;;;5108507;28;20719;-72
2023/10/22 02:28:43;;;;;;;1.40;1.30;;;9.40;99.90;;;;;;5108252;28;20732;-72
2023/10/22 02:31:11;;;;;;;2.37;1.83;;;9.40;99.90;;;;;;5108492;28;20624;-72
2023/10/22 02:33:40;;;;;;;1.67;1.57;;;9.30;99.90;;;;;;5112523;27;20624;-71
2023/10/22 02:36:08;;;;;;;1.87;1.77;;;9.40;99.90;;;;;;5108886;28;20642;-72
2023/10/22 02:38:37;;;;;;;1.00;0.90;;;9.30;99.90;;;;;;5108252;28;20675;-72
2023/10/22 02:41:04;;;;;;;1.60;1.50;;;9.20;99.90;;;;;;5108514;28;20624;-71
2023/10/22 02:43:32;;;;;;;1.50;1.40;;;9.30;99.90;;;;;;5107215;28;20626;-72
2023/10/22 02:45:59;;;;;;;1.37;1.27;;;9.20;99.90;;;;;;5107858;28;20636;-72
2023/10/22 02:48:27;;;;;;;1.43;1.33;;;9.10;99.90;;;;;;5108400;28;20764;-72
2023/10/22 02:50:56;;;;;;;1.40;1.30;;;9.00;99.90;;;;;;5108521;28;20628;-72
2023/10/22 02:53:24;;;;;;;1.17;1.10;;;8.90;99.90;;;;;;5108511;28;20624;-71
2023/10/22 02:56:00;;;;;;;1.57;1.20;;;9.00;99.90;;;;;;5108088;28;20693;-71
2023/10/22 02:58:29;;;;;;;1.70;1.50;;;9.00;99.90;;;;;;5107796;28;20709;-71
2023/10/22 03:01:03;;;;;;;1.50;1.40;;;9.00;99.90;;;;;;5108307;28;20624;-71
2023/10/22 03:03:31;;;;;;;1.23;1.10;;;9.00;99.90;;;;;;5108373;28;20742;-71
2023/10/22 03:06:00;;;;;;;2.33;1.70;;;9.00;99.90;;;;;;5108086;28;20625;-71
2023/10/22 03:08:28;;;;;;;1.10;1.00;;;9.00;99.90;;;;;;5099819;28;21017;-71
2023/10/22 03:10:56;;;;;;;1.00;0.97;;;9.00;99.90;;;;;;5107954;28;21203;-71
2023/10/22 03:13:24;;;;;;;1.30;1.20;;;8.90;99.90;;;;;;5107523;28;20746;-71
2023/10/22 03:15:52;;;;;;;1.30;1.20;;;8.90;99.90;;;;;;5108031;28;20620;-71
2023/10/22 03:18:20;;;;;;;1.53;1.43;;;8.90;99.90;;;;;;5107222;28;20652;-71
2023/10/22 03:20:54;;;;;;;2.20;1.83;;;8.90;99.90;;;;;;5107884;28;20728;-71
2023/10/22 03:23:25;;;;;;;1.43;1.33;;;8.90;99.90;;;;;;5107526;28;20620;-72
2023/10/22 03:25:52;;;;;;;1.67;1.33;;;8.90;99.90;;;;;;5107473;28;20715;-72
2023/10/22 03:28:19;;;;;;;1.47;1.37;;;8.80;99.90;;;;;;5106934;28;20636;-71
2023/10/22 03:30:46;;;;;;;3.20;1.80;;;8.80;99.90;;;;;;5107278;28;20631;-72
2023/10/22 03:33:12;;;;;;;1.73;1.50;;;8.80;99.90;;;;;;5106806;28;20618;-71
2023/10/22 03:35:39;;;;;;;1.50;1.20;;;8.70;99.90;;;;;;5107230;28;20630;-71
2023/10/22 03:38:06;;;;;;;1.73;1.47;;;8.70;99.90;;;;;;5106469;28;20766;-72
2023/10/22 03:40:34;;;;;;;0.93;0.93;;;8.70;99.90;;;;;;5107504;28;20613;-72
2023/10/22 03:43:01;;;;;;;1.70;1.23;;;8.70;99.90;;;;;;5105386;28;20715;-71
2023/10/22 03:45:28;;;;;;;3.53;2.27;;;8.70;99.90;;;;;;5106930;28;20620;-71
2023/10/22 03:47:54;;;;;;;1.73;1.60;;;8.70;99.90;;;;;;5107104;28;20616;-72
2023/10/22 03:50:21;;;;;;;2.20;2.10;;;8.70;99.90;;;;;;5106601;28;20624;-72
2023/10/22 03:52:48;;;;;;;2.07;1.80;;;8.60;99.90;;;;;;5106144;28;20616;-72
2023/10/22 03:55:15;;;;;;;2.00;1.83;;;8.70;99.90;;;;;;5107238;28;20624;-72
2023/10/22 03:57:43;;;;;;;1.60;1.40;;;8.80;99.90;;;;;;5105971;28;20675;-72
2023/10/22 04:00:11;;;;;;;1.07;1.07;;;8.70;99.90;;;;;;5107083;28;20635;-72
2023/10/22 04:02:38;;;;;;;1.40;1.17;;;8.70;99.90;;;;;;5111034;27;21232;-72
2023/10/22 04:05:05;;;;;;;2.27;1.37;;;8.70;99.90;;;;;;5106881;28;21290;-72
2023/10/22 04:07:32;;;;;;;2.43;1.70;;;8.70;99.90;;;;;;5106177;28;20624;-72
2023/10/22 04:09:59;;;;;;;1.63;1.53;;;8.60;99.90;;;;;;5107242;28;20620;-71
2023/10/22 04:12:25;;;;;;;1.40;1.30;;;8.70;99.90;;;;;;5107282;28;20624;-72
2023/10/22 04:14:53;;;;;;;1.50;1.40;;;8.60;99.90;;;;;;5106509;28;20616;-72
2023/10/22 04:17:20;;;;;;;1.87;1.70;;;8.60;99.90;;;;;;5106286;28;21204;-72
2023/10/22 04:19:47;;;;;;;1.50;1.40;;;8.50;99.90;;;;;;5106292;28;20659;-72
2023/10/22 04:22:14;;;;;;;1.53;1.40;;;8.60;99.90;;;;;;5107054;28;20616;-72
2023/10/22 04:24:40;;;;;;;4.73;1.83;;;8.50;99.90;;;;;;5107024;28;20627;-72
2023/10/22 04:27:07;;;;;;;2.03;1.67;;;8.50;99.90;;;;;;5106324;28;20667;-72
2023/10/22 04:29:34;;;;;;;1.73;1.63;;;8.50;99.90;;;;;;5104982;28;22278;-71
2023/10/22 04:32:02;;;;;;;1.83;1.73;;;8.50;99.90;;;;;;5105590;28;20687;-71
2023/10/22 04:34:29;;;;;;;2.37;1.23;;;8.50;99.90;;;;;;5104961;28;21233;-71
2023/10/22 04:36:56;;;;;;;2.43;1.97;;;8.50;99.90;;;;;;5105260;28;20612;-71
2023/10/22 04:39:24;;;;;;;1.70;1.60;;;8.50;99.90;;;;;;5104210;28;20663;-71
2023/10/22 04:41:51;;;;;;;1.57;1.30;;;8.50;99.90;;;;;;5105768;28;20952;-71
2023/10/22 04:44:19;;;;;;;2.40;1.80;;;8.50;99.90;;;;;;5106556;28;20632;-71
2023/10/22 04:46:45;;;;;;;1.73;1.63;;;8.50;99.90;;;;;;5097743;28;21158;-71
2023/10/22 04:49:14;;;;;;;1.60;1.50;;;8.50;99.90;;;;;;5106274;28;20615;-71
2023/10/22 04:51:41;;;;;;;1.30;1.17;;;8.50;99.90;;;;;;5108631;28;20719;-71
2023/10/22 04:54:08;;;;;;;1.43;1.33;;;8.50;99.90;;;;;;5106516;28;20636;-71
2023/10/22 04:56:35;;;;;;;1.67;1.47;;;8.50;99.90;;;;;;5107681;28;20632;-72
2023/10/22 04:59:02;;;;;;;1.50;1.27;;;8.50;99.90;;;;;;5109534;28;21130;-72
2023/10/22 05:01:29;;;;;;;2.77;2.23;;;8.50;99.90;;;;;;5109276;28;20642;-72
2023/10/22 05:03:56;;;;;;;1.87;1.50;;;8.50;99.90;;;;;;5109042;28;20664;-71
2023/10/22 05:06:24;;;;;;;1.97;1.87;;;8.40;99.90;;;;;;5109318;28;20627;-71
2023/10/22 05:08:51;;;;;;;1.40;1.30;;;8.40;99.90;;;;;;5109600;28;20956;-71
2023/10/22 05:11:18;;;;;;;2.10;1.90;;;8.40;99.90;;;;;;5109382;28;20630;-71
2023/10/22 05:13:45;;;;;;;1.60;1.50;;;8.40;99.90;;;;;;5109536;28;20624;-71
2023/10/22 05:16:12;;;;;;;1.60;1.50;;;8.40;99.90;;;;;;5108654;28;20764;-71
2023/10/22 05:18:39;;;;;;;1.70;1.60;;;8.40;99.90;;;;;;5109345;28;20668;-71
2023/10/22 05:21:07;;;;;;;1.47;1.37;;;8.40;99.90;;;;;;5109679;28;21267;-72
2023/10/22 05:23:36;;;;;;;2.57;1.57;;;8.40;99.90;;;;;;5109358;28;20626;-72
2023/10/22 05:26:05;;;;;;;1.60;1.50;;;8.40;99.90;;;;;;5109384;28;20986;-72
2023/10/22 05:28:32;;;;;;;4.30;1.67;;;8.50;99.90;;;;;;5108387;28;20624;-72
2023/10/22 05:30:59;;;;;;;2.00;1.50;;;8.60;99.90;;;;;;5111435;27;20743;-72
2023/10/22 05:33:25;;;;;;;2.60;1.37;;;8.50;99.90;;;;;;5108982;28;21161;-72
2023/10/22 05:35:52;;;;;;;2.13;1.33;;;8.50;99.90;;;;;;5109546;28;20616;-72
2023/10/22 05:38:19;;;;;;;2.63;1.50;;;8.60;99.90;;;;;;5108857;28;20727;-71
2023/10/22 05:40:47;;;;;;;1.30;1.23;;;8.70;99.90;;;;;;5109239;28;20660;-71
2023/10/22 05:43:15;;;;;;;1.97;1.20;;;8.70;99.90;;;;;;5108184;28;20620;-71
2023/10/22 05:45:41;;;;;;;1.00;0.87;;;8.80;99.90;;;;;;5108802;27;20620;-72
2023/10/22 05:48:08;;;;;;;1.77;1.27;;;8.90;99.90;;;;;;5108784;28;20620;-72
2023/10/22 05:50:39;;;;;;;1.53;1.20;;;8.90;99.90;;;;;;5107235;28;20731;-72
2023/10/22 05:53:06;;;;;;;1.37;1.27;;;8.90;99.90;;;;;;5109085;28;20623;-72
2023/10/22 05:55:32;;;;;;;1.20;1.03;;;8.90;99.90;;;;;;5108401;28;20651;-72
2023/10/22 05:58:00;;;;;;;1.03;0.77;;;8.80;99.90;;;;;;5108377;28;20630;-71
2023/10/22 06:00:27;;;;;;;3.27;1.03;;;8.80;99.90;;;;;;5108867;28;20664;-72
2023/10/22 06:02:54;;;;;;;4.10;0.87;;;8.90;99.90;;;;;;5108670;28;20620;-72
2023/10/22 06:05:21;;;;;;;0.60;0.60;;;8.90;99.90;;;;;;5109534;27;20608;-71
2023/10/22 06:07:47;;;;;;;0.73;0.70;;;8.90;99.90;;;;;;5107781;28;20620;-72
2023/10/22 06:10:14;;;;;;;2.17;1.17;;;9.00;99.90;;;;;;5108208;28;20619;-72
2023/10/22 06:12:41;;;;;;;1.03;0.93;;;8.90;99.90;;;;;;5107928;28;21156;-71
2023/10/22 06:15:10;;;;;;;0.93;0.93;;;8.90;99.90;;;;;;5108025;28;20642;-72
2023/10/22 06:17:37;;;;;;;0.70;0.70;;;8.90;99.90;;;;;;5105113;28;20638;-72
2023/10/22 06:20:06;;;;;;;1.40;0.63;;;8.90;99.90;;;;;;5108113;28;20659;-72
2023/10/22 06:22:32;;;;;;;0.70;0.70;;;8.80;99.90;;;;;;5108463;28;20608;-72
2023/10/22 06:24:59;;;;;;;1.03;0.87;;;8.80;99.90;;;;;;5107275;28;20747;-72
2023/10/22 06:27:26;;;;;;;0.73;0.70;;;8.80;99.90;;;;;;5107661;28;20627;-72
2023/10/22 06:29:53;;;;;;;0.70;0.60;;;8.80;99.90;;;;;;5108271;28;20656;-72
2023/10/22 06:32:22;;;;;;;0.90;0.80;;;8.90;99.90;;;;;;5108255;28;20608;-72
2023/10/22 06:34:48;;;;;;;1.00;0.77;;;8.90;99.90;;;;;;5108801;28;20620;-72
2023/10/22 06:37:15;;;;;;;4.77;1.27;;;8.90;99.90;;;;;;5107641;28;20726;-72
2023/10/22 06:39:42;;;;;;;2.20;1.10;;;8.90;99.90;;;;;;5108669;28;20771;-72
2023/10/22 06:42:11;;;;;;;0.90;0.80;;;8.90;99.90;;;;;;5104658;27;20642;-72
2023/10/22 06:44:45;;;;;;;1.00;0.90;;;9.00;99.90;;;;;;5101833;27;20698;-74
2023/10/22 06:47:14;;;;;;;2.83;1.20;;;9.00;99.90;;;;;;5109178;27;20620;-74
2023/10/22 06:49:42;;;;;;;3.60;1.00;;;9.00;99.90;;;;;;5107896;27;20731;-75
2023/10/22 06:52:09;;;;;;;0.90;0.90;;;9.10;99.90;;;;;;5111024;27;20624;-75
2023/10/22 06:54:35;;;;;;;1.77;1.40;;;9.20;99.90;;;;;;5113718;27;20986;-75
2023/10/22 06:57:02;;;;;;;1.70;1.37;;;9.20;99.90;;;;;;5109750;27;20630;-74
2023/10/22 06:59:29;;;;;;;3.63;1.97;;;9.30;99.90;;;;;;5093504;28;20668;-73
2023/10/22 07:01:56;;;;;;;2.30;1.90;;;9.40;99.90;;;;;;5093673;28;20624;-73
2023/10/22 07:04:23;;;;;;;2.03;1.40;;;9.50;99.90;;;;;;5094733;28;20648;-73
2023/10/22 07:06:51;;;;;;;1.33;1.23;;;9.60;99.90;;;;;;5096990;28;20713;-73
2023/10/22 07:09:18;;;;;;;3.23;1.03;;;9.60;99.90;;;;;;5096729;28;20633;-73
2023/10/22 07:11:46;;;;;;;2.40;1.43;;;9.70;99.90;;;;;;5099904;28;20624;-72
2023/10/22 07:14:13;;;;;;;1.10;1.00;;;9.80;99.90;;;;;;5097091;28;20735;-72
2023/10/22 07:16:39;;;;;;;1.20;0.80;;;9.90;99.90;;;;;;5094841;28;20624;-72
2023/10/22 07:19:06;;;;;;;1.23;0.60;;;10.00;99.90;;;;;;5095763;28;20655;-73
2023/10/22 07:21:33;;;;;;;2.53;0.90;;;10.00;99.90;;;;;;5101573;28;20618;-72
2023/10/22 07:24:01;;;;;;;0.87;0.87;;;10.20;99.90;;;;;;5100555;28;20631;-77
2023/10/22 07:26:28;;;;;;;0.73;0.60;;;10.20;99.90;;;;;;5082511;28;20749;-79
2023/10/22 07:28:55;;;;;;;0.53;0.53;;;10.30;99.90;;;;;;5087184;28;20624;-79
2023/10/22 07:31:21;;;;;;;1.57;0.67;;;10.40;99.90;;;;;;5094023;28;20629;-83
2023/10/22 07:33:50;;;;;;;0.50;0.50;;;10.50;99.90;;;;;;5099305;28;20659;-76
2023/10/22 07:36:17;;;;;;;0.73;0.73;;;10.50;99.90;;;;;;5103890;28;20624;-75
2023/10/22 07:38:43;;;;;;;1.00;0.53;;;10.60;99.90;;;;;;5086592;28;20633;-76
2023/10/22 07:41:15;;;;;;;2.10;0.80;;;10.60;99.90;;;;;;5087307;28;21320;-77
2023/10/22 07:43:42;;;;;;;3.13;1.50;;;10.80;99.90;;;;;;5087877;28;20659;-75
2023/10/22 07:46:10;;;;;;;1.23;1.00;;;10.90;99.90;;;;;;5093317;28;20639;-76
2023/10/22 07:48:36;;;;;;;1.80;0.77;;;10.90;99.90;;;;;;5079396;28;20624;-76
2023/10/22 07:51:11;;;;;;;0.53;0.53;;;11.10;99.90;;;;;;5082355;28;20724;-74
2023/10/22 07:53:38;;;;;;;1.43;1.33;;;11.20;99.90;;;;;;5084830;28;20624;-73
2023/10/22 07:56:05;;;;;;;1.20;1.10;;;11.30;99.90;;;;;;5088990;28;21211;-73
2023/10/22 07:58:36;;;;;;;0.70;0.70;;;11.30;99.90;;;;;;5090025;28;21005;-75
2023/10/22 08:01:04;;;;;;;1.07;0.80;;;11.40;99.90;;;;;;5088543;28;21282;-74
2023/10/22 08:03:34;;;;;;;1.20;1.10;;;11.50;99.90;;;;;;5088468;28;20626;-73
2023/10/22 08:06:05;;;;;;;1.10;0.80;;;11.60;99.90;;;;;;5088079;28;20660;-73
2023/10/22 08:08:32;;;;;;;0.80;0.80;;;11.70;99.90;;;;;;5087689;28;20673;-73
2023/10/22 08:10:59;;;;;;;0.60;0.60;;;11.90;99.90;;;;;;5083384;28;20732;-73
2023/10/22 08:13:27;;;;;;;1.07;0.80;;;11.90;99.90;;;;;;5089170;28;20631;-72
2023/10/22 08:15:56;;;;;;;1.27;0.60;;;11.90;99.90;;;;;;5086328;28;20723;-72
2023/10/22 08:18:23;;;;;;;0.50;0.50;;;12.10;99.90;;;;;;5086471;28;20657;-73
2023/10/22 08:20:49;;;;;;;0.40;0.40;;;12.10;99.50;;;;;;5098076;28;20673;-73
2023/10/22 08:23:16;;;;;;;1.13;0.87;;;12.30;98.90;;;;;;5085844;28;20643;-72
2023/10/22 08:25:51;;;;;;;1.00;0.50;;;12.30;98.50;;;;;;5091263;28;20617;-74
2023/10/22 08:28:17;;;;;;;0.40;0.40;;;12.30;99.10;;;;;;5090189;28;21100;-75
2023/10/22 08:30:45;;;;;;;1.00;0.70;;;12.50;99.00;;;;;;5090554;28;20737;-75
2023/10/22 08:33:14;;;;;;;1.03;0.90;;;12.60;97.90;;;;;;5088978;28;20731;-75
2023/10/22 08:35:41;;;;;;;1.07;0.53;;;12.70;97.90;;;;;;5082776;28;20736;-75
2023/10/22 08:38:08;;;;;;;0.97;0.87;;;12.80;98.10;;;;;;5088649;28;21229;-74
2023/10/22 08:40:38;;;;;;;1.70;1.07;;;12.80;97.80;;;;;;5092285;28;20694;-75
2023/10/22 08:43:07;;;;;;;1.70;1.00;;;12.90;97.00;;;;;;5089667;28;20751;-75
2023/10/22 08:45:34;;;;;;;1.00;0.70;;;13.00;96.50;;;;;;5087369;28;20633;-75
2023/10/22 08:48:04;;;;;;;0.50;0.40;;;13.10;96.30;;;;;;5084434;28;20628;-74
2023/10/22 08:50:33;;;;;;;5.13;1.10;;;13.30;96.00;;;;;;5089289;28;20621;-75
2023/10/22 08:53:00;;;;;;;1.70;0.73;;;13.30;95.80;;;;;;5091346;28;20791;-75
2023/10/22 08:55:29;;;;;;;2.50;1.00;;;13.30;95.60;;;;;;5088716;28;21165;-73
2023/10/22 08:57:58;;;;;;;16.43;1.30;;;13.30;95.40;;;;;;5079985;28;20634;-74
2023/10/22 09:00:27;;;;;;;2.00;0.70;;;13.40;95.00;;;;;;5093893;28;21137;-76
2023/10/22 09:02:54;;;;;;;0.80;0.80;;;13.40;95.30;;;;;;5089500;28;21198;-76
2023/10/22 09:05:21;;;;;;;1.63;0.80;;;13.40;95.40;;;;;;5091602;27;20724;-75
2023/10/22 09:07:56;;;;;;;2.00;0.50;;;13.60;94.80;;;;;;5092791;28;20634;-75
2023/10/22 09:10:29;;;;;;;0.73;0.37;;;13.70;95.00;;;;;;5092841;28;20637;-74
2023/10/22 09:13:09;;;;;;;1.30;0.63;;;13.80;94.10;;;;;;5083094;28;20636;-74
2023/10/22 09:15:37;;;;;;;6.43;0.70;;;13.80;94.00;;;;;;5093684;28;20641;-74
2023/10/22 09:18:05;;;;;;;0.63;0.63;;;13.80;94.60;;;;;;5088331;28;20656;-73
2023/10/22 09:20:34;;;;;;;2.80;1.00;;;13.90;94.20;;;;;;5089499;28;20679;-74
2023/10/22 09:23:16;;;;;;;0.90;0.90;;;13.70;94.00;;;;;;5089194;28;21185;-75
2023/10/22 09:25:43;;;;;;;2.17;0.50;;;13.80;94.40;;;;;;5083385;28;20620;-74
2023/10/22 09:28:15;;;;;;;0.50;0.40;;;13.90;94.00;;;;;;5087276;28;20625;-74
2023/10/22 09:30:42;;;;;;;1.27;0.90;;;14.00;93.80;;;;;;5087397;28;20637;-74
2023/10/22 09:33:09;;;;;;;0.50;0.40;;;13.90;94.10;;;;;;5093451;28;20639;-74
2023/10/22 09:35:36;;;;;;;0.90;0.50;;;14.00;93.90;;;;;;5104745;28;21264;-73
2023/10/22 09:38:03;;;;;;;0.60;0.60;;;14.00;94.40;;;;;;5095961;28;20736;-75
2023/10/22 09:40:34;;;;;;;10.10;4.70;;;14.20;93.60;;;;;;5088736;28;20666;-76
2023/10/22 09:43:02;;;;;;;3.10;1.80;;;14.20;93.10;;;;;;5099478;28;20638;-76
2023/10/22 09:45:31;;;;;;;2.43;1.30;;;14.20;93.10;;;;;;5088590;28;20641;-76
2023/10/22 09:48:05;;;;;;;1.13;0.80;;;14.20;93.60;;;;;;5088100;28;20730;-75
2023/10/22 09:50:34;;;;;;;0.60;0.37;;;14.40;93.10;;;;;;5089921;28;20615;-75
2023/10/22 09:53:03;;;;;;;0.93;0.63;;;14.50;93.10;;;;;;5089407;28;20750;-75
2023/10/22 09:55:33;;;;;;;1.27;0.60;;;14.50;93.10;;;;;;5093417;28;21050;-76
2023/10/22 09:58:01;;;;;;;0.77;0.70;;;14.50;92.70;;;;;;5088213;28;20730;-76
2023/10/22 10:00:29;;;;;;;0.40;0.40;;;14.50;92.70;;;;;;5094661;28;20664;-76
2023/10/22 10:02:58;;;;;;;1.80;1.17;;;14.60;92.00;;;;;;5094266;28;20624;-76
2023/10/22 10:05:25;;;;;;;6.20;0.80;;;14.60;92.10;;;;;;5092183;28;20643;-76
2023/10/22 10:07:52;;;;;;;0.87;0.60;;;14.60;92.10;;;;;;5087185;28;20631;-75
2023/10/22 10:10:21;;;;;;;0.43;0.40;;;14.70;91.70;;;;;;5095979;28;20635;-75
2023/10/22 10:12:49;;;;;;;1.10;0.60;;;14.60;91.90;;;;;;5099503;28;21164;-76
2023/10/22 10:15:33;;;;;;;0.70;0.50;;;14.60;91.10;;;;;;5091852;28;20646;-75
2023/10/22 10:18:01;;;;;;;2.90;0.73;;;14.80;90.90;;;;;;5086867;28;20662;-76
2023/10/22 10:20:30;;;;;;;1.27;0.90;;;14.90;90.50;;;;;;5087049;28;21043;-75
2023/10/22 10:23:08;;;;;;;2.30;0.80;;;15.00;90.60;;;;;;5087689;28;20639;-75
2023/10/22 10:25:36;;;;;;;1.00;0.87;;;15.20;90.30;;;;;;5085365;28;20630;-75
2023/10/22 10:28:06;;;;;;;1.30;0.63;;;15.30;90.00;;;;;;5090358;28;20639;-74
2023/10/22 10:30:34;;;;;;;1.73;0.60;;;15.30;90.40;;;;;;5078333;28;20708;-74
2023/10/22 10:33:01;;;;;;;1.33;0.77;;;15.40;89.60;;;;;;5086074;28;20640;-75
2023/10/22 10:35:29;;;;;;;1.23;0.63;;;15.50;89.80;;;;;;5086829;28;20710;-75
2023/10/22 10:38:23;;;;;;;0.70;0.50;;;15.60;89.30;;;;;;5084726;28;20641;-74
2023/10/22 10:40:52;;;;;;;1.33;1.23;;;15.80;87.80;;;;;;5068974;28;20668;-75
2023/10/22 10:43:21;;;;;;;0.70;0.60;;;15.80;88.10;;;;;;5083885;28;21102;-75
2023/10/22 10:46:25;;;;;;;1.80;0.80;;;15.80;87.00;;;;;;5086798;28;20727;-75
2023/10/22 10:48:52;;;;;;;2.77;0.83;;;16.00;86.60;;;;;;5089383;28;20626;-76
2023/10/22 10:51:21;;;;;;;4.63;0.90;;;16.10;85.80;;;;;;5078278;28;21286;-71
2023/10/22 10:54:17;;;;;;;1.47;0.70;;;16.10;85.30;;;;;;5084364;28;21231;-72
2023/10/22 10:56:52;;;;;;;0.80;0.57;;;16.00;86.70;;;;;;5083496;28;20727;-73
2023/10/22 10:59:27;;;;;;;2.70;0.70;;;16.00;84.70;;;;;;5084517;28;20645;-72
2023/10/22 11:01:59;;;;;;;2.63;0.70;;;16.00;83.90;;;;;;5084582;28;20659;-72
2023/10/22 11:04:26;;;;;;;3.70;0.80;;;15.80;84.90;;;;;;5085742;28;20965;-71
2023/10/22 11:06:53;;;;;;;2.97;1.60;;;15.60;86.90;;;;;;5083286;28;20734;-71
2023/10/22 11:09:19;;;;;;;1.50;0.57;;;15.50;84.70;;;;;;5086412;28;21269;-70
2023/10/22 11:11:59;;;;;;;0.77;0.77;;;15.40;85.50;;;;;;5087737;28;20624;-69
2023/10/22 11:14:27;;;;;;;3.80;0.70;;;15.40;84.30;;;;;;5083782;28;21266;-70
2023/10/22 11:16:56;;;;;;;0.60;0.50;;;15.40;84.10;;;;;;5085631;28;20654;-70
2023/10/22 11:19:24;;;;;;;0.83;0.70;;;15.40;84.30;;;;;;5086182;28;20679;-70
2023/10/22 11:21:52;;;;;;;1.07;0.60;;;15.40;86.80;;;;;;5085179;28;20752;-71
2023/10/22 11:24:20;;;;;;;1.77;0.70;;;15.50;86.50;;;;;;5089977;28;20735;-71
2023/10/22 11:26:48;;;;;;;0.73;0.57;;;15.60;87.10;;;;;;5086373;28;20657;-71
2023/10/22 11:29:15;;;;;;;1.27;1.17;;;15.60;85.40;;;;;;5082124;28;20648;-71
2023/10/22 11:31:56;;;;;;;6.10;0.80;;;15.80;86.80;;;;;;5085511;28;22086;-71
2023/10/22 11:34:23;;;;;;;0.90;0.43;;;15.90;82.70;;;;;;5087477;28;20625;-72
2023/10/22 11:36:57;;;;;;;1.53;0.40;;;16.00;84.10;;;;;;5091782;28;20632;-71
2023/10/22 11:39:24;;;;;;;1.33;0.93;;;16.20;81.50;;;;;;5087305;28;20636;-75
2023/10/22 11:41:58;;;;;;;1.77;0.70;;;16.10;82.00;;;;;;5086205;28;20691;-72
2023/10/22 11:44:30;;;;;;;1.37;0.70;;;16.30;82.60;;;;;;5086097;28;21191;-74
2023/10/22 11:46:59;;;;;;;0.60;0.60;;;16.30;83.20;;;;;;5084735;28;21067;-72
2023/10/22 11:49:26;;;;;;;2.10;0.70;;;16.30;83.60;;;;;;5087831;28;20620;-72
2023/10/22 11:51:53;;;;;;;3.10;2.17;;;16.50;82.50;;;;;;5084260;28;20631;-72
2023/10/22 11:54:20;;;;;;;1.80;0.60;;;16.60;81.00;;;;;;5083935;28;20629;-72
2023/10/22 11:56:47;;;;;;;0.80;0.50;;;16.80;82.20;;;;;;5085013;28;20623;-72
2023/10/22 11:59:13;;;;;;;0.50;0.47;;;16.80;78.40;;;;;;5088626;28;20696;-72
2023/10/22 12:01:40;;;;;;;2.10;0.80;;;16.90;79.60;;;;;;5085679;28;20672;-72
2023/10/22 12:04:09;;;;;;;0.60;0.50;;;16.90;78.10;;;;;;5085522;28;20624;-73
2023/10/22 12:06:36;;;;;;;2.00;0.70;;;16.90;78.80;;;;;;5090786;28;20617;-73
2023/10/22 12:09:03;;;;;;;1.33;0.50;;;16.90;77.90;;;;;;5083726;28;20639;-73
2023/10/22 12:11:30;;;;;;;1.70;1.00;;;17.00;78.50;;;;;;5085311;28;21208;-73
2023/10/22 12:13:57;;;;;;;0.60;0.50;;;17.00;76.20;;;;;;5085515;28;20651;-72
2023/10/22 12:16:25;;;;;;;1.60;1.13;;;16.90;76.00;;;;;;5089286;28;20775;-72
2023/10/22 12:18:52;;;;;;;1.37;0.90;;;16.90;75.80;;;;;;5087299;28;20621;-71
2023/10/22 12:21:21;;;;;;;1.33;0.50;;;16.80;75.30;;;;;;5085313;28;20699;-72
2023/10/22 12:23:48;;;;;;;2.30;0.70;;;16.70;75.30;;;;;;5085783;28;21010;-72
2023/10/22 12:26:15;;;;;;;2.27;0.87;;;16.70;79.20;;;;;;5088633;28;20869;-71
2023/10/22 12:28:42;;;;;;;1.77;0.70;;;16.60;76.20;;;;;;5084016;28;20628;-71
2023/10/22 12:31:09;;;;;;;0.77;0.77;;;16.80;77.10;;;;;;5085192;28;21220;-69
2023/10/22 12:33:35;;;;;;;1.20;0.60;;;16.70;76.20;;;;;;5098490;28;21204;-69
2023/10/22 12:36:04;;;;;;;3.23;0.60;;;16.70;75.60;;;;;;5085856;28;20632;-69
2023/10/22 12:38:32;;;;;;;1.20;0.50;;;16.70;76.90;;;;;;5098889;28;20202;-69
2023/10/22 12:41:00;;;;;;;5.80;0.80;;;16.50;76.20;;;;;;5085837;28;20692;-70
2023/10/22 12:43:26;;;;;;;1.67;0.50;;;16.30;77.90;;;;;;5084899;28;21071;-72
2023/10/22 12:45:53;;;;;;;3.30;1.20;;;16.30;78.30;;;;;;5086304;28;20726;-71
2023/10/22 12:48:20;;;;;;;1.53;0.70;;;16.20;77.70;;;;;;5084348;28;20755;-72
2023/10/22 12:50:50;;;;;;;0.50;0.40;;;16.10;77.20;;;;;;5083317;28;20624;-71
2023/10/22 12:53:17;;;;;;;1.00;0.83;;;16.00;79.80;;;;;;5085471;28;20624;-71
2023/10/22 12:55:52;;;;;;;0.50;0.50;;;15.90;77.00;;;;;;5087367;28;20629;-72
2023/10/22 12:58:19;;;;;;;5.10;0.60;;;16.00;79.80;;;;;;5088267;28;20979;-71